Time;durP1;ratioP1;P1;durP2;ratioP2;P2;SDS_P1;SDS_P2;PMS_P1;PMS_P2;Temp;Humidity;BMP_temperature;BMP_pressure;BME280_temperature;BME280_humidity;BME280_pressure;Samples;Min_cycle;Max_cycle;Signal;HPM_P1;HPM_P2
2021/11/03 00:02:11;;;;;;;70.50;39.15;;;2.70;93.50;;;;;;5089615;28;20050;-78
2021/11/03 00:04:40;;;;;;;58.72;37.28;;;2.60;93.50;;;;;;5072653;28;20036;-77
2021/11/03 00:07:13;;;;;;;58.28;37.53;;;2.60;93.60;;;;;;5087842;28;20044;-78
2021/11/03 00:09:41;;;;;;;;;;;2.60;93.70;;;;;;5093216;28;20058;-78
2021/11/03 00:12:14;;;;;;;63.63;35.28;;;2.60;93.40;;;;;;5092837;28;19919;-77
2021/11/03 00:14:42;;;;;;;70.88;38.65;;;2.50;93.60;;;;;;5093817;28;20505;-78
2021/11/03 00:17:10;;;;;;;91.07;40.50;;;2.50;93.90;;;;;;5092522;28;20044;-78
2021/11/03 00:19:38;;;;;;;85.72;45.67;;;2.50;93.90;;;;;;5091984;28;20044;-78
2021/11/03 00:22:06;;;;;;;77.60;39.60;;;2.50;94.00;;;;;;5093482;28;20036;-79
2021/11/03 00:24:35;;;;;;;79.55;42.78;;;2.50;94.10;;;;;;5093449;28;20044;-78
2021/11/03 00:27:03;;;;;;;71.50;38.15;;;2.50;94.10;;;;;;5093637;28;20051;-77
2021/11/03 00:29:31;;;;;;;49.58;29.02;;;2.50;94.00;;;;;;5093634;28;20064;-79
2021/11/03 00:32:02;;;;;;;42.17;25.17;;;2.50;93.70;;;;;;5093488;28;20052;-78
2021/11/03 00:34:31;;;;;;;39.47;23.83;;;2.50;93.50;;;;;;5093531;28;20063;-78
2021/11/03 00:36:58;;;;;;;41.97;27.65;;;2.40;93.40;;;;;;5093508;28;20040;-78
2021/11/03 00:39:27;;;;;;;50.83;28.00;;;2.30;93.60;;;;;;5092253;28;20075;-78
2021/11/03 00:41:55;;;;;;;83.78;30.48;;;2.30;93.80;;;;;;5092281;28;20094;-78
2021/11/03 00:44:24;;;;;;;43.35;21.52;;;2.30;93.70;;;;;;5091476;28;20063;-78
2021/11/03 00:46:52;;;;;;;128.98;32.60;;;2.20;93.60;;;;;;5092086;28;20047;-77
2021/11/03 00:49:19;;;;;;;139.70;32.45;;;2.20;93.60;;;;;;5091722;28;20048;-78
2021/11/03 00:51:48;;;;;;;45.72;24.10;;;2.20;93.70;;;;;;5091849;28;20044;-77
2021/11/03 00:54:17;;;;;;;157.57;33.35;;;2.10;93.60;;;;;;5092005;28;20044;-77
2021/11/03 00:56:49;;;;;;;106.70;32.28;;;2.00;93.70;;;;;;5071509;28;20443;-78
2021/11/03 00:59:18;;;;;;;58.20;23.50;;;2.00;93.80;;;;;;5071612;28;20056;-77
2021/11/03 01:01:47;;;;;;;37.17;21.27;;;2.00;93.60;;;;;;5071844;28;20048;-78
2021/11/03 01:04:15;;;;;;;46.28;24.10;;;1.90;93.40;;;;;;5081125;28;20056;-78
2021/11/03 01:06:43;;;;;;;44.35;26.45;;;1.80;93.40;;;;;;5091218;28;20059;-78
2021/11/03 01:09:11;;;;;;;36.67;22.75;;;1.70;93.40;;;;;;5092757;28;20051;-78
2021/11/03 01:11:38;;;;;;;53.20;28.38;;;1.80;93.60;;;;;;5089278;28;20102;-78
2021/11/03 01:14:07;;;;;;;42.95;24.92;;;1.80;93.70;;;;;;5091678;28;20067;-78
2021/11/03 01:16:35;;;;;;;34.30;21.25;;;1.70;93.70;;;;;;5092986;28;20048;-78
2021/11/03 01:19:04;;;;;;;33.08;19.65;;;1.70;93.60;;;;;;5074930;28;20402;-78
2021/11/03 01:21:32;;;;;;;31.25;20.33;;;1.70;93.50;;;;;;5074719;28;20040;-78
2021/11/03 01:24:00;;;;;;;42.45;25.88;;;1.60;93.50;;;;;;5092734;28;20119;-78
2021/11/03 01:26:28;;;;;;;59.00;33.85;;;1.60;93.60;;;;;;5092583;28;20060;-78
2021/11/03 01:28:58;;;;;;;61.55;34.78;;;1.50;93.70;;;;;;5091377;28;20055;-78
2021/11/03 01:31:26;;;;;;;55.63;33.72;;;1.60;93.90;;;;;;5091010;28;20048;-79
2021/11/03 01:33:56;;;;;;;69.35;34.67;;;1.60;94.10;;;;;;5071322;28;20402;-78
2021/11/03 01:36:23;;;;;;;56.00;32.97;;;1.70;94.20;;;;;;5072612;28;20044;-78
2021/11/03 01:38:51;;;;;;;57.42;31.83;;;1.80;94.60;;;;;;5070962;28;20052;-79
2021/11/03 01:41:21;;;;;;;58.35;30.67;;;1.80;94.70;;;;;;5070936;28;20036;-78
2021/11/03 01:44:00;;;;;;;57.53;30.63;;;1.90;94.90;;;;;;5070772;28;20049;-79
2021/11/03 01:46:32;;;;;;;58.90;29.75;;;2.00;95.10;;;;;;5073015;28;20059;-79
2021/11/03 01:49:16;;;;;;;59.78;32.22;;;2.00;95.20;;;;;;5055595;28;20045;-78
2021/11/03 01:52:00;;;;;;;54.33;28.25;;;2.20;95.30;;;;;;5070905;28;20478;-78
2021/11/03 01:54:35;;;;;;;53.80;27.75;;;2.20;95.20;;;;;;5072298;28;20406;-78
2021/11/03 01:57:09;;;;;;;42.15;23.63;;;2.20;95.20;;;;;;5090677;28;20548;-78
2021/11/03 01:59:44;;;;;;;45.67;27.38;;;2.20;95.10;;;;;;5090730;28;20115;-79
2021/11/03 02:02:15;;;;;;;49.63;27.15;;;2.30;95.20;;;;;;5080747;28;20040;-78
2021/11/03 02:04:45;;;;;;;42.72;24.65;;;2.30;95.30;;;;;;5090978;28;20421;-78
2021/11/03 02:07:17;;;;;;;41.22;23.50;;;2.40;95.30;;;;;;5074528;28;20429;-78
2021/11/03 02:09:45;;;;;;;38.45;23.23;;;2.40;95.40;;;;;;5090959;28;20048;-78
2021/11/03 02:12:19;;;;;;;37.03;23.38;;;2.50;95.50;;;;;;5090817;28;20044;-78
2021/11/03 02:14:49;;;;;;;34.90;21.73;;;2.60;95.70;;;;;;5090777;28;20474;-78
2021/11/03 02:17:18;;;;;;;40.08;21.85;;;2.70;95.80;;;;;;5073981;28;20048;-78
2021/11/03 02:19:47;;;;;;;46.00;22.55;;;2.80;95.80;;;;;;5090685;28;20051;-79
2021/11/03 02:22:30;;;;;;;42.22;24.00;;;2.80;95.90;;;;;;5093654;28;20044;-78
2021/11/03 02:25:07;;;;;;;45.95;25.40;;;2.80;96.00;;;;;;5094918;28;20540;-79
2021/11/03 02:27:39;;;;;;;44.53;25.50;;;2.90;96.10;;;;;;5096264;28;20040;-78
2021/11/03 02:30:10;;;;;;;44.27;26.03;;;3.00;96.20;;;;;;5077852;28;20051;-78
2021/11/03 02:32:42;;;;;;;37.40;23.70;;;3.20;96.20;;;;;;5074014;28;20405;-78
2021/11/03 02:35:12;;;;;;;37.67;21.05;;;3.30;96.20;;;;;;5075668;28;20041;-78
2021/11/03 02:37:44;;;;;;;43.65;20.88;;;3.30;96.20;;;;;;5076390;28;20044;-79
2021/11/03 02:40:37;;;;;;;42.33;21.92;;;3.40;96.10;;;;;;5094537;28;20047;-79
2021/11/03 02:43:15;;;;;;;33.63;18.98;;;3.50;96.10;;;;;;5077730;28;20067;-78
2021/11/03 02:45:45;;;;;;;35.00;20.33;;;3.50;96.00;;;;;;5094334;28;20060;-78
2021/11/03 02:48:15;;;;;;;29.55;18.40;;;3.50;96.00;;;;;;5094524;28;20047;-78
2021/11/03 02:50:57;;;;;;;29.95;17.75;;;3.60;96.00;;;;;;5094309;28;20398;-78
2021/11/03 02:53:26;;;;;;;34.65;18.80;;;3.60;95.90;;;;;;5094426;28;20378;-78
2021/11/03 02:55:54;;;;;;;28.98;18.15;;;3.70;95.90;;;;;;5092201;28;20048;-79
2021/11/03 02:58:22;;;;;;;40.67;19.75;;;3.80;95.90;;;;;;5073556;28;20060;-79
2021/11/03 03:00:52;;;;;;;28.80;16.08;;;3.80;95.80;;;;;;5057137;28;20417;-78
2021/11/03 03:03:20;;;;;;;24.85;15.60;;;3.80;95.80;;;;;;5073660;28;20040;-78
2021/11/03 03:05:58;;;;;;;30.00;16.35;;;3.80;95.70;;;;;;5057679;28;20048;-78
2021/11/03 03:08:26;;;;;;;30.10;16.40;;;3.80;95.70;;;;;;5073764;28;20398;-78
2021/11/03 03:10:54;;;;;;;27.00;14.85;;;3.80;95.60;;;;;;5060193;28;20052;-78
2021/11/03 03:13:21;;;;;;;35.13;15.00;;;3.80;95.60;;;;;;5093785;28;20044;-78
2021/11/03 03:15:49;;;;;;;24.63;15.13;;;3.80;95.50;;;;;;5095127;28;20059;-78
2021/11/03 03:18:16;;;;;;;25.48;15.55;;;3.80;95.50;;;;;;5093837;28;20054;-77
2021/11/03 03:20:44;;;;;;;32.80;17.65;;;3.90;95.50;;;;;;5093726;28;20066;-78
2021/11/03 03:23:32;;;;;;;34.38;17.90;;;3.90;95.50;;;;;;5093840;28;20032;-78
2021/11/03 03:26:01;;;;;;;35.50;16.88;;;3.90;95.50;;;;;;5093627;28;20036;-78
2021/11/03 03:28:30;;;;;;;42.67;17.67;;;4.00;95.40;;;;;;5093404;28;20059;-77
2021/11/03 03:30:58;;;;;;;33.20;16.30;;;4.00;95.40;;;;;;5093406;28;20063;-77
2021/11/03 03:33:27;;;;;;;35.10;16.90;;;4.00;95.30;;;;;;5092838;28;20052;-77
2021/11/03 03:35:54;;;;;;;27.23;15.48;;;4.10;95.20;;;;;;5093735;28;20040;-78
2021/11/03 03:38:22;;;;;;;32.63;16.65;;;4.10;95.20;;;;;;5093455;28;20043;-78
2021/11/03 03:40:50;;;;;;;26.50;15.13;;;4.20;95.10;;;;;;5081141;28;20404;-77
2021/11/03 03:43:18;;;;;;;28.77;15.75;;;4.20;95.10;;;;;;5096436;28;20043;-78
2021/11/03 03:45:51;;;;;;;24.90;15.80;;;4.20;95.10;;;;;;5113494;28;20035;-78
2021/11/03 03:48:19;;;;;;;25.52;14.93;;;4.30;95.00;;;;;;5096496;28;20055;-77
2021/11/03 03:50:47;;;;;;;25.42;14.88;;;4.30;94.90;;;;;;5096834;28;20043;-77
2021/11/03 03:53:15;;;;;;;29.92;14.90;;;4.30;94.80;;;;;;5113584;28;20440;-78
2021/11/03 03:56:03;;;;;;;30.05;15.75;;;4.30;94.70;;;;;;5098826;28;20066;-78
2021/11/03 03:58:32;;;;;;;27.02;14.38;;;4.30;94.70;;;;;;5093241;28;20497;-77
2021/11/03 04:01:00;;;;;;;36.53;16.25;;;4.30;94.60;;;;;;5092836;28;20051;-78
2021/11/03 04:03:29;;;;;;;32.55;17.02;;;4.40;94.70;;;;;;5092540;28;20050;-78
2021/11/03 04:05:56;;;;;;;29.15;15.27;;;4.50;94.70;;;;;;5093850;28;20048;-78
2021/11/03 04:08:24;;;;;;;30.67;15.48;;;4.60;94.70;;;;;;5093028;28;20052;-78
2021/11/03 04:10:52;;;;;;;25.65;14.35;;;4.60;94.60;;;;;;5092661;28;20047;-78
2021/11/03 04:13:21;;;;;;;23.40;13.75;;;4.70;94.60;;;;;;5076156;28;20055;-78
2021/11/03 04:15:52;;;;;;;26.08;14.55;;;4.80;94.60;;;;;;5092620;28;20067;-78
2021/11/03 04:18:20;;;;;;;24.83;14.32;;;4.80;94.50;;;;;;5092675;28;20039;-78
2021/11/03 04:20:49;;;;;;;19.50;13.43;;;4.80;94.50;;;;;;5092423;28;20036;-78
2021/11/03 04:23:18;;;;;;;25.52;13.93;;;4.80;94.50;;;;;;5092622;28;20610;-78
2021/11/03 04:25:47;;;;;;;31.20;14.93;;;4.90;94.40;;;;;;5076019;28;20047;-78
2021/11/03 04:28:15;;;;;;;24.02;13.93;;;4.90;94.40;;;;;;5092410;28;20052;-78
2021/11/03 04:30:43;;;;;;;27.08;13.80;;;4.90;94.40;;;;;;5092263;28;20043;-78
2021/11/03 04:33:14;;;;;;;21.15;13.70;;;4.90;94.40;;;;;;5092318;28;20039;-77
2021/11/03 04:35:42;;;;;;;25.58;13.05;;;4.90;94.40;;;;;;5092429;28;20044;-79
2021/11/03 04:38:09;;;;;;;19.95;12.15;;;5.00;94.40;;;;;;5092184;28;20477;-78
2021/11/03 04:40:39;;;;;;;19.80;12.55;;;5.00;94.30;;;;;;5092071;28;20052;-78
2021/11/03 04:43:08;;;;;;;20.70;11.65;;;;;;;;;;5091748;28;20048;-78
2021/11/03 04:45:35;;;;;;;19.38;12.60;;;5.10;94.30;;;;;;5091108;28;20048;-77
2021/11/03 04:48:05;;;;;;;23.23;14.50;;;5.10;94.30;;;;;;5090817;28;20048;-77
2021/11/03 04:50:33;;;;;;;45.53;19.30;;;5.10;94.30;;;;;;5091845;28;20048;-77
2021/11/03 04:53:02;;;;;;;49.83;19.17;;;5.20;94.30;;;;;;5091954;28;20059;-77
2021/11/03 04:55:32;;;;;;;48.05;21.52;;;5.20;94.30;;;;;;5091722;28;20488;-77
2021/11/03 04:58:00;;;;;;;54.38;21.92;;;5.30;94.30;;;;;;5091417;28;20098;-77
2021/11/03 05:00:30;;;;;;;53.42;21.45;;;5.30;94.20;;;;;;5090938;28;20044;-77
2021/11/03 05:03:01;;;;;;;53.27;22.07;;;5.30;94.20;;;;;;5091786;28;20055;-77
2021/11/03 05:05:29;;;;;;;58.58;22.92;;;5.40;94.20;;;;;;5092928;28;20396;-77
2021/11/03 05:07:57;;;;;;;52.72;22.10;;;5.50;94.20;;;;;;5091660;28;20044;-77
2021/11/03 05:10:24;;;;;;;38.22;17.85;;;5.50;94.20;;;;;;5092931;28;20480;-77
2021/11/03 05:12:55;;;;;;;53.83;20.73;;;5.50;94.10;;;;;;5091909;28;20060;-77
2021/11/03 05:15:23;;;;;;;69.10;22.98;;;5.60;94.10;;;;;;5092529;28;20044;-77
2021/11/03 05:17:51;;;;;;;68.78;25.52;;;5.60;94.10;;;;;;5091270;28;20598;-77
2021/11/03 05:20:20;;;;;;;78.22;26.08;;;5.60;94.10;;;;;;5091420;28;20389;-77
2021/11/03 05:22:49;;;;;;;77.75;26.88;;;5.60;94.10;;;;;;5090534;28;20048;-77
2021/11/03 05:25:21;;;;;;;72.35;26.60;;;5.70;94.10;;;;;;5092276;28;20465;-77
2021/11/03 05:27:49;;;;;;;81.97;27.02;;;5.70;94.10;;;;;;5092257;28;20505;-77
2021/11/03 05:30:18;;;;;;;92.85;29.02;;;5.70;94.00;;;;;;5092138;28;20047;-77
2021/11/03 05:32:46;;;;;;;101.43;30.20;;;5.70;94.10;;;;;;5079964;28;20048;-78
2021/11/03 05:35:15;;;;;;;122.68;33.95;;;5.70;94.10;;;;;;5072270;28;20514;-78
2021/11/03 05:37:43;;;;;;;120.45;33.40;;;5.70;94.20;;;;;;5072612;28;20052;-78
2021/11/03 05:40:20;;;;;;;134.05;35.92;;;5.70;94.20;;;;;;5070948;28;20052;-78
2021/11/03 05:42:48;;;;;;;130.98;35.08;;;5.80;94.20;;;;;;5070745;28;20056;-78
2021/11/03 05:45:16;;;;;;;147.23;38.97;;;5.80;94.20;;;;;;5072199;28;20051;-78
2021/11/03 05:47:44;;;;;;;150.68;39.13;;;5.80;94.10;;;;;;5082647;28;20048;-79
2021/11/03 05:50:18;;;;;;;162.70;39.38;;;5.80;94.20;;;;;;5092387;28;20055;-78
2021/11/03 05:52:46;;;;;;;164.63;37.35;;;5.80;94.20;;;;;;5091101;28;20044;-78
2021/11/03 05:55:15;;;;;;;141.43;33.15;;;5.80;94.00;;;;;;5091102;28;20099;-78
2021/11/03 05:57:43;;;;;;;122.90;31.10;;;5.70;94.00;;;;;;5092950;28;20047;-78
2021/11/03 06:00:17;;;;;;;127.85;30.92;;;5.70;94.00;;;;;;5092339;28;20063;-78
2021/11/03 06:02:45;;;;;;;130.35;32.08;;;5.60;94.10;;;;;;5092175;28;20040;-78
2021/11/03 06:05:14;;;;;;;215.98;40.28;;;5.50;94.30;;;;;;5092311;28;20048;-78
2021/11/03 06:08:07;;;;;;;255.88;43.10;;;5.50;94.50;;;;;;5090889;28;20044;-78
2021/11/03 06:10:38;;;;;;;373.05;49.47;;;5.50;94.60;;;;;;5074108;28;20048;-78
2021/11/03 06:13:08;;;;;;;362.73;49.22;;;5.50;94.60;;;;;;5092154;28;20048;-78
2021/11/03 06:15:37;;;;;;;325.17;45.72;;;5.50;94.60;;;;;;5095075;28;20401;-78
2021/11/03 06:18:07;;;;;;;369.95;48.33;;;5.50;94.60;;;;;;5091068;28;20409;-78
2021/11/03 06:20:34;;;;;;;425.05;51.08;;;5.60;94.60;;;;;;5090259;28;20052;-78
2021/11/03 06:23:02;;;;;;;396.30;50.05;;;5.60;94.60;;;;;;5091642;28;20043;-78
2021/11/03 06:25:30;;;;;;;426.85;51.25;;;5.60;94.60;;;;;;5089984;28;20040;-77
2021/11/03 06:27:59;;;;;;;360.58;48.78;;;5.60;94.60;;;;;;5090714;28;20051;-78
2021/11/03 06:30:30;;;;;;;471.10;52.53;;;5.60;94.60;;;;;;5093539;28;20052;-78
2021/11/03 06:32:59;;;;;;;435.80;53.05;;;5.60;94.60;;;;;;5110988;28;20047;-79
2021/11/03 06:35:27;;;;;;;412.73;52.20;;;5.70;94.60;;;;;;5111118;28;20507;-78
2021/11/03 06:37:55;;;;;;;208.43;44.10;;;5.70;94.60;;;;;;5111030;28;20047;-78
2021/11/03 06:40:24;;;;;;;288.20;48.25;;;5.70;94.50;;;;;;5111444;28;20497;-78
2021/11/03 06:42:53;;;;;;;279.40;48.38;;;5.70;94.50;;;;;;5090814;28;20047;-78
2021/11/03 06:45:23;;;;;;;278.35;50.55;;;5.60;94.50;;;;;;5090554;28;20047;-78
2021/11/03 06:47:52;;;;;;;238.77;44.70;;;5.60;94.50;;;;;;5100005;28;20458;-75
2021/11/03 06:50:24;;;;;;;286.55;47.45;;;5.50;94.40;;;;;;5110911;28;20035;-76
2021/11/03 06:52:53;;;;;;;196.52;43.30;;;5.50;94.40;;;;;;5110789;28;20527;-76
2021/11/03 06:55:22;;;;;;;207.88;46.10;;;5.40;94.40;;;;;;5111920;28;20039;-76
2021/11/03 06:57:50;;;;;;;209.95;46.42;;;5.30;94.50;;;;;;5098702;28;20497;-76
2021/11/03 07:00:25;;;;;;;296.23;51.25;;;5.30;94.80;;;;;;5111558;28;20546;-75
2021/11/03 07:02:54;;;;;;;310.77;50.58;;;5.30;95.00;;;;;;5103421;28;20489;-76
2021/11/03 07:05:22;;;;;;;306.92;50.60;;;5.30;95.00;;;;;;5096277;28;20054;-75
2021/11/03 07:07:51;;;;;;;342.75;51.45;;;5.30;95.00;;;;;;5096772;28;20048;-76
2021/11/03 07:10:25;;;;;;;356.88;55.50;;;5.40;95.10;;;;;;5105959;28;20063;-76
2021/11/03 07:12:53;;;;;;;357.55;54.67;;;5.40;95.10;;;;;;5093967;28;20233;-82
2021/11/03 07:15:21;;;;;;;275.15;47.65;;;5.40;95.10;;;;;;5096184;28;20055;-77
2021/11/03 07:17:49;;;;;;;342.08;45.95;;;5.50;95.10;;;;;;5097218;28;20093;-77
2021/11/03 07:20:18;;;;;;;343.83;47.63;;;5.50;95.10;;;;;;5093852;28;20501;-77
2021/11/03 07:22:45;;;;;;;490.13;54.03;;;5.50;95.00;;;;;;5106142;28;20044;-77
2021/11/03 07:25:18;;;;;;;349.00;47.55;;;5.50;95.00;;;;;;5097343;28;20047;-77
2021/11/03 07:27:47;;;;;;;344.70;49.50;;;5.50;95.00;;;;;;5106834;28;20044;-77
2021/11/03 07:30:15;;;;;;;365.08;49.47;;;5.50;94.90;;;;;;5094802;28;20059;-77
2021/11/03 07:32:43;;;;;;;361.90;49.88;;;5.60;94.90;;;;;;5093466;28;20048;-76
2021/11/03 07:35:11;;;;;;;323.55;47.55;;;5.60;94.90;;;;;;5095819;28;20418;-77
2021/11/03 07:37:39;;;;;;;239.57;44.90;;;5.60;94.90;;;;;;5094063;28;20493;-77
2021/11/03 07:40:10;;;;;;;254.98;46.00;;;5.60;94.90;;;;;;5105332;28;20074;-77
2021/11/03 07:42:38;;;;;;;226.63;44.60;;;5.60;94.90;;;;;;5095482;28;20040;-77
2021/11/03 07:45:07;;;;;;;202.00;43.92;;;5.60;94.80;;;;;;5113359;28;20501;-76
2021/11/03 07:47:35;;;;;;;207.30;43.75;;;5.60;94.90;;;;;;5112604;28;20070;-78
2021/11/03 07:50:05;;;;;;;191.43;44.45;;;5.60;94.90;;;;;;5114689;28;20059;-79
2021/11/03 07:52:32;;;;;;;176.23;42.70;;;5.70;94.90;;;;;;5108464;28;20405;-79
2021/11/03 07:55:00;;;;;;;154.85;40.05;;;5.70;94.90;;;;;;5101833;28;20047;-78
2021/11/03 07:57:28;;;;;;;165.95;40.75;;;5.70;94.90;;;;;;5096356;28;20070;-79
2021/11/03 07:59:55;;;;;;;140.82;37.67;;;5.70;94.80;;;;;;5112134;28;20043;-79
2021/11/03 08:02:23;;;;;;;151.35;39.53;;;5.70;94.80;;;;;;5114213;28;20428;-78
2021/11/03 08:04:51;;;;;;;166.77;41.33;;;5.70;94.80;;;;;;5114599;28;20047;-77
2021/11/03 08:07:23;;;;;;;169.50;39.63;;;5.70;94.90;;;;;;5096357;28;20048;-78
2021/11/03 08:09:51;;;;;;;130.82;39.00;;;5.70;94.80;;;;;;5108688;28;20477;-79
2021/11/03 08:12:19;;;;;;;130.35;38.42;;;5.70;94.90;;;;;;5090062;28;20048;-79
2021/11/03 08:14:47;;;;;;;124.60;37.88;;;5.70;94.90;;;;;;5091557;28;20040;-78
2021/11/03 08:17:22;;;;;;;168.20;40.58;;;5.70;95.00;;;;;;5087740;28;20406;-78
2021/11/03 08:19:56;;;;;;;187.43;41.25;;;5.70;95.10;;;;;;5071934;28;20437;-78
2021/11/03 08:22:25;;;;;;;216.45;45.20;;;5.80;95.10;;;;;;5080355;28;20405;-78
2021/11/03 08:24:55;;;;;;;222.88;44.03;;;5.80;95.10;;;;;;5093061;28;20512;-79
2021/11/03 08:27:24;;;;;;;193.05;42.80;;;5.90;95.00;;;;;;5085751;28;20045;-78
2021/11/03 08:29:52;;;;;;;152.43;40.00;;;5.90;95.00;;;;;;5071963;28;20045;-79
2021/11/03 08:32:32;;;;;;;145.85;41.33;;;6.00;95.00;;;;;;5091325;28;20048;-79
2021/11/03 08:34:59;;;;;;;150.18;41.25;;;6.00;94.90;;;;;;5093529;28;20067;-79
2021/11/03 08:37:32;;;;;;;131.38;39.83;;;6.10;94.90;;;;;;5093610;28;20052;-79
2021/11/03 08:40:02;;;;;;;130.53;40.27;;;6.20;94.80;;;;;;5075430;28;20063;-78
2021/11/03 08:42:29;;;;;;;134.45;40.17;;;6.20;94.80;;;;;;5092325;28;20291;-79
2021/11/03 08:44:57;;;;;;;172.40;41.63;;;6.30;94.80;;;;;;5092053;28;20052;-79
2021/11/03 08:47:26;;;;;;;172.30;41.55;;;6.30;94.70;;;;;;5093228;28;20059;-78
2021/11/03 08:49:54;;;;;;;171.18;41.67;;;6.30;94.70;;;;;;5091830;28;20044;-79
2021/11/03 08:52:22;;;;;;;153.20;41.70;;;6.40;94.60;;;;;;5093232;28;20370;-79
2021/11/03 08:54:49;;;;;;;156.80;40.88;;;6.40;94.60;;;;;;5093291;28;20059;-79
2021/11/03 08:57:24;;;;;;;137.20;39.70;;;6.50;94.50;;;;;;5093263;28;20047;-79
2021/11/03 08:59:56;;;;;;;150.50;40.40;;;6.50;94.50;;;;;;5093132;28;20048;-79
2021/11/03 09:02:24;;;;;;;152.75;40.38;;;6.50;94.50;;;;;;5093472;28;20056;-76
2021/11/03 09:04:55;;;;;;;136.13;38.65;;;6.50;94.50;;;;;;5091495;28;20045;-77
2021/11/03 09:07:23;;;;;;;133.55;40.05;;;6.50;94.40;;;;;;5091802;28;20473;-78
2021/11/03 09:09:50;;;;;;;114.40;37.78;;;6.50;94.50;;;;;;5092771;28;20055;-78
2021/11/03 09:12:18;;;;;;;104.68;36.47;;;6.50;94.50;;;;;;5091503;28;20048;-78
2021/11/03 09:14:46;;;;;;;94.22;33.65;;;6.60;94.60;;;;;;5092076;28;20441;-79
2021/11/03 09:17:14;;;;;;;96.32;33.88;;;6.70;94.50;;;;;;5092837;28;20051;-79
2021/11/03 09:19:42;;;;;;;85.68;32.67;;;6.70;94.40;;;;;;5092557;28;20512;-79
2021/11/03 09:22:09;;;;;;;75.00;29.58;;;6.80;94.40;;;;;;5091548;28;20051;-79
2021/11/03 09:24:37;;;;;;;75.07;32.15;;;6.80;94.30;;;;;;5092730;28;20044;-79
2021/11/03 09:27:16;;;;;;;74.07;31.15;;;6.80;94.20;;;;;;5092656;28;20329;-78
2021/11/03 09:29:46;;;;;;;74.30;30.13;;;6.90;94.20;;;;;;5092752;28;20382;-78
2021/11/03 09:32:17;;;;;;;70.65;30.25;;;6.90;94.10;;;;;;5089545;28;20397;-78
2021/11/03 09:34:58;;;;;;;;;;;7.00;94.00;;;;;;5091155;28;20048;-77
2021/11/03 09:37:26;;;;;;;57.05;25.75;;;7.00;93.90;;;;;;5088899;28;19923;-77
2021/11/03 09:39:55;;;;;;;57.08;26.33;;;7.00;93.80;;;;;;5073278;28;20047;-77
2021/11/03 09:42:25;;;;;;;55.42;26.55;;;6.90;93.70;;;;;;5090972;28;20055;-77
2021/11/03 09:44:55;;;;;;;55.08;25.55;;;6.90;93.80;;;;;;5090995;28;20543;-79
2021/11/03 09:47:30;;;;;;;53.95;25.27;;;6.90;94.00;;;;;;5089695;28;20404;-77
2021/11/03 09:50:06;;;;;;;48.53;24.15;;;6.90;93.90;;;;;;5091048;28;20062;-77
2021/11/03 09:52:37;;;;;;;44.50;22.15;;;6.90;93.80;;;;;;5089756;28;20068;-78
2021/11/03 09:55:13;;;;;;;45.65;23.38;;;6.80;93.80;;;;;;5086993;28;20067;-78
2021/11/03 09:57:45;;;;;;;45.22;22.63;;;6.80;93.80;;;;;;5090957;28;20044;-77
2021/11/03 10:00:22;;;;;;;42.93;22.83;;;6.80;93.80;;;;;;5089631;28;20048;-79
2021/11/03 10:03:22;;;;;;;40.95;22.17;;;6.80;93.70;;;;;;5087811;28;20280;-77
2021/11/03 10:06:05;;;;;;;46.08;22.20;;;6.80;93.70;;;;;;5047014;28;20052;-77
2021/11/03 10:08:40;;;;;;;39.08;21.13;;;6.80;93.70;;;;;;5089234;28;20055;-77
2021/11/03 10:11:35;;;;;;;39.72;22.00;;;6.80;93.80;;;;;;5088613;28;20048;-77
2021/11/03 10:14:05;;;;;;;37.10;20.42;;;6.80;93.80;;;;;;5089360;28;20047;-77
2021/11/03 10:16:39;;;;;;;33.63;19.50;;;6.90;93.80;;;;;;5090652;28;20040;-78
2021/11/03 10:19:32;;;;;;;30.05;18.23;;;7.10;93.70;;;;;;5088862;28;20078;-77
2021/11/03 10:22:19;;;;;;;32.23;17.53;;;7.30;93.70;;;;;;5084306;28;20062;-78
2021/11/03 10:25:24;;;;;;;30.35;17.13;;;7.40;93.60;;;;;;5087163;28;20059;-77
2021/11/03 10:27:57;;;;;;;22.75;14.60;;;7.70;93.30;;;;;;5082935;28;20059;-78
2021/11/03 10:30:28;;;;;;;24.52;15.52;;;7.80;93.00;;;;;;5087843;28;20544;-77
2021/11/03 10:33:01;;;;;;;17.92;12.13;;;8.00;92.70;;;;;;5090526;28;20056;-79
2021/11/03 10:35:36;;;;;;;;;;;8.20;92.20;;;;;;5091249;28;20063;-78
2021/11/03 10:38:18;;;;;;;19.05;12.30;;;8.30;91.80;;;;;;5090046;28;20285;-78
2021/11/03 10:41:02;;;;;;;13.18;9.15;;;8.50;91.20;;;;;;5073028;28;20055;-77
2021/11/03 10:43:42;;;;;;;14.50;10.32;;;8.80;90.80;;;;;;5092546;28;20054;-77
2021/11/03 10:46:36;;;;;;;14.20;9.15;;;9.00;89.80;;;;;;5091379;28;20055;-79
2021/11/03 10:49:08;;;;;;;;;;;9.30;88.60;;;;;;5091155;28;20084;-79
2021/11/03 10:51:40;;;;;;;10.48;6.40;;;9.60;88.10;;;;;;5091620;28;19920;-78
2021/11/03 10:54:17;;;;;;;10.98;7.20;;;9.70;87.30;;;;;;5093116;28;20520;-78
2021/11/03 10:56:59;;;;;;;10.85;7.22;;;9.80;86.00;;;;;;5092156;28;20201;-78
2021/11/03 10:59:30;;;;;;;10.65;6.72;;;9.80;86.10;;;;;;5090220;28;20493;-77
2021/11/03 11:02:25;;;;;;;10.57;7.38;;;9.90;85.50;;;;;;5094039;28;20048;-77
2021/11/03 11:04:56;;;;;;;10.40;7.00;;;9.90;85.10;;;;;;5091462;28;20044;-77
2021/11/03 11:07:33;;;;;;;8.95;6.50;;;10.00;84.70;;;;;;5092502;28;20054;-76
2021/11/03 11:10:15;;;;;;;10.77;6.18;;;10.00;84.30;;;;;;5095551;28;20044;-77
2021/11/03 11:12:44;;;;;;;10.35;6.43;;;10.10;83.30;;;;;;5095343;28;20044;-77
2021/11/03 11:15:48;;;;;;;10.27;6.30;;;10.20;82.60;;;;;;5094854;28;20064;-77
2021/11/03 11:18:41;;;;;;;8.65;6.00;;;10.30;82.10;;;;;;5095114;28;20047;-77
2021/11/03 11:21:41;;;;;;;9.02;5.90;;;10.50;81.60;;;;;;5093748;28;20039;-77
2021/11/03 11:24:22;;;;;;;14.65;5.95;;;10.80;80.70;;;;;;5093682;28;20048;-76
2021/11/03 11:26:54;;;;;;;8.95;6.00;;;11.00;80.00;;;;;;5092615;28;20036;-76
2021/11/03 11:29:52;;;;;;;10.98;5.78;;;11.20;78.80;;;;;;5093444;28;20455;-76
2021/11/03 11:32:38;;;;;;;8.80;6.15;;;11.30;77.80;;;;;;5092081;28;20044;-76
2021/11/03 11:35:37;;;;;;;10.13;5.43;;;10.90;77.30;;;;;;5092909;28;20048;-77
2021/11/03 11:38:28;;;;;;;9.50;6.25;;;10.70;77.70;;;;;;5091267;28;20417;-77
2021/11/03 11:41:18;;;;;;;8.18;5.57;;;10.40;78.30;;;;;;5091248;28;20063;-77
2021/11/03 11:43:55;;;;;;;13.57;6.25;;;10.80;79.10;;;;;;5093044;28;20051;-77
2021/11/03 11:46:26;;;;;;;9.90;5.57;;;11.30;78.60;;;;;;5093333;28;20039;-76
2021/11/03 11:49:10;;;;;;;10.27;6.05;;;11.80;78.30;;;;;;5094107;28;20059;-76
2021/11/03 11:51:43;;;;;;;10.35;5.38;;;11.90;77.50;;;;;;5093214;28;20048;-77
2021/11/03 11:54:40;;;;;;;9.73;5.60;;;11.80;77.00;;;;;;5093710;28;20044;-76
2021/11/03 11:57:10;;;;;;;8.73;5.68;;;11.90;77.00;;;;;;5094451;28;20516;-77
2021/11/03 12:00:09;;;;;;;11.48;8.38;;;12.30;76.90;;;;;;5093057;28;20040;-77
2021/11/03 12:02:54;;;;;;;9.98;6.20;;;12.70;74.10;;;;;;5094398;28;20063;-78
2021/11/03 12:05:45;;;;;;;8.30;5.35;;;12.50;72.10;;;;;;5094267;28;20043;-77
2021/11/03 12:08:27;;;;;;;6.93;4.68;;;12.10;72.10;;;;;;5093461;28;20134;-76
2021/11/03 12:10:55;;;;;;;4.38;3.90;;;12.30;72.50;;;;;;5093769;28;20429;-77
2021/11/03 12:13:52;;;;;;;8.95;4.72;;;12.80;71.00;;;;;;5093737;28;20047;-77
2021/11/03 12:16:23;;;;;;;4.82;4.35;;;13.00;69.90;;;;;;5093393;28;20055;-77
2021/11/03 12:18:53;;;;;;;9.18;4.35;;;12.80;69.80;;;;;;5093424;28;20032;-77
2021/11/03 12:21:26;;;;;;;7.38;3.90;;;12.80;70.30;;;;;;5093895;28;20052;-77
2021/11/03 12:24:07;;;;;;;7.28;4.25;;;13.10;69.70;;;;;;5093885;28;20048;-77
2021/11/03 12:27:13;;;;;;;4.50;4.10;;;13.30;67.00;;;;;;5094503;27;20106;-77
2021/11/03 12:29:41;;;;;;;5.70;3.88;;;13.80;67.10;;;;;;5084582;28;20157;-77
2021/11/03 12:32:45;;;;;;;9.23;4.03;;;14.00;66.20;;;;;;5092364;28;20294;-77
2021/11/03 12:35:18;;;;;;;4.53;3.50;;;14.50;65.10;;;;;;5070957;28;20036;-77
2021/11/03 12:37:56;;;;;;;7.47;4.10;;;14.90;64.20;;;;;;5054191;28;20060;-77
2021/11/03 12:40:35;;;;;;;4.15;3.40;;;15.20;61.60;;;;;;5053799;28;20048;-77
2021/11/03 12:43:33;;;;;;;4.03;3.60;;;15.30;59.70;;;;;;5053584;28;20044;-77
2021/11/03 12:46:12;;;;;;;4.95;3.10;;;15.50;60.80;;;;;;5054287;28;20560;-75
2021/11/03 12:48:50;;;;;;;4.53;3.35;;;15.80;60.40;;;;;;5070790;28;20045;-76
2021/11/03 12:51:38;;;;;;;3.60;3.03;;;15.70;60.00;;;;;;5054186;28;20060;-76
2021/11/03 12:54:12;;;;;;;5.05;2.40;;;15.70;59.50;;;;;;5070581;28;20048;-77
2021/11/03 12:56:52;;;;;;;3.30;2.40;;;15.80;59.10;;;;;;5070551;28;20052;-76
2021/11/03 12:59:42;;;;;;;2.40;2.00;;;15.90;58.00;;;;;;5070764;28;20446;-77
2021/11/03 13:02:12;;;;;;;2.88;1.48;;;16.20;57.30;;;;;;5070407;28;20048;-76
2021/11/03 13:04:45;;;;;;;2.28;1.50;;;16.30;56.30;;;;;;5070639;28;20470;-77